Terminal Aerodrome Forecast
Issued by NWS

Home | Current Version | Previous Version | Text Only | Print | Product List | Glossary On
Versions: 1 2 3 4 5 6 7 8 9 10 11 12 13 14 15 16 17 18 19 20 21 22 23 24 25 26 27 28
583
FTUS45 KREV 192329
TAFTVL
TAF
KTVL 192329Z 2000/2024 20014G22KT P6SM VCSH BKN040 OVC050
      WS020/25040KT
      TEMPO 2000/2002 5SM -SN BKN020
     FM200200 19011G18KT 5SM -RASN BKN020 OVC030 WS020/25045KT
     FM200500 19012G20KT 5SM -RA SCT015 OVC025 WS020/25050KT
     FM201200 20024G35KT 3SM RA BR SCT008 OVC015 WS005/25060KT
     FM201800 20020G32KT 2SM RA BR SCT008 OVC012 WS005/25070KT=

USA.gov is the U.S. government's official web portal to all federal, state and local government web resources and services.